Portada
METAR-TAF:

METAR-TAF

Aeroports :

Kwajalein, Illes Marshall

latitud: 08-43N, longitud: 167-44E, altitud: 3 m

Observació

L'informe es va fer fa 12 minuts, a les 04:20 UTC
Vent 14 kt del Est/Nord-Est
Temperatura 30°C
Humitat 70%
Pressió 1008 hPa
Visibilitat: 16.1 km
Núvols disperses a una alçada de 2400 ft
Núvols disperses a una alçada de 3100 ft

METAR: PKWA 200420Z AUTO 07014KT 10SM SCT024 SCT031 30/24 A2977 RMK AO2 T03040240

Hora: 16:32 (04:32 UTC)

Pronòstic

L'informe es va fer fa 5 hores i 7 minuts, a les 23:25 UTC
Pronòstic vàlid del 20 a les 00 UTC al 20 a les 24 UTC
Vent 16 kt del Est/Nord-Est amb ràfegues de 25 kt
Visibilitat: 10 km
Núvols disperses a una alçada de 2200 ft
Núvols disperses a una alçada de 5000 ft
xàfecs en les proximitats

TAF: PKWA 192325Z 2000/2024 07016G25KT P6SM VCSH SCT022 SCT050

Observacions i pronòstics meteorològics de més de 4000 aeroports (METAR i TAF).

Les estacions disponibles són els punts grocs i vermells al mapa.

Posi el ratolí al punt desitjat per veure el nom de l'estació.

Feu clic per veure les observacions i els pronòstics meteorològics.

Per canviar el mapa: feu clic els botons verds amb una creu de color negre per apropar; al botó verd amb un guió per allunyar la imatge; o en les fletxes verdes per a mapes adjacents.


METAR-TAF: